If you wish to contribute or participate in the discussions about articles you are invited to join SKYbrary as a registered user

 Actions

Aarhus Airport

From SKYbrary Wiki

EKAH
Airport
ICAO: EKAH – IATA: AAR
Summary
Name Aarhus Airport
Region Europe
Territory Denmark DK.gif
Location Tirstrup, Central Jutland Region
Serving Aarhus
Elevation 24.994 m <br />82 ft <br />82 ft24.994 m <br />
Coordinates 56° 18' 11.42" N, 10° 37' 4.39" E
Runways
Designator Length Width Surface ROPS
10L/28R 2777 m9,110.892 ft <br /> 23 m75.459 ft <br /> PEM yes/yes
10R/28L 2702 m8,864.829 ft <br /> 45 m147.638 ft <br /> PEM yes/yes


METAR
Observation EKAH 180320Z AUTO 06006KT 9999 BKN100/// 08/01 Q1025
Station Tirstrup
Date/Time 18 April 2021 03:20:00
Wind direction 60°
Wind speed 06 kts
Lowest cloud amount broken clouds
Temperature 8°C
Dew point 1°C
Humidity 61%
QNH 1025 hPa
Weather condition n/a

Aarhus Airport

ICAO: EKAH IATA: AAR

Description

International airport serving Aarhus, Denmark.

Climatology

Temperate Marine climate/Oceanic climate (Köppen climate classification Cfb). Moderately cool summer and comparatively warm winter with a temperature range of only 14°C57.2 °F <br />287.15 K <br />516.87 °R <br />. Prevailing south-westerly winds from the Atlantic Ocean.

Maps

Terrain

Loading map...

Airport Layout

Loading map...


Accidents & Serious Incidents at or in vicinity of EKAH

None on SKYbrary